createdAt,value
2017-08-22T00:00:45.577Z,4.53
2017-08-22T00:03:13.184Z,3.33
2017-08-22T00:05:40.787Z,4.03
2017-08-22T00:08:08.739Z,3.93
2017-08-22T00:10:36.320Z,3.80
2017-08-22T00:13:03.907Z,4.00
2017-08-22T00:15:31.568Z,5.07
2017-08-22T00:17:59.163Z,4.30
2017-08-22T00:20:26.804Z,4.00
2017-08-22T00:22:54.426Z,3.70
2017-08-22T00:25:22.374Z,3.87
2017-08-22T00:27:49.939Z,4.03
2017-08-22T00:30:17.530Z,3.60
2017-08-22T00:32:45.141Z,3.53
2017-08-22T00:35:12.737Z,4.37
2017-08-22T00:37:40.358Z,3.97
2017-08-22T00:40:07.970Z,4.10
2017-08-22T00:42:35.596Z,3.87
2017-08-22T00:45:03.192Z,3.17
2017-08-22T00:47:31.236Z,3.70
2017-08-22T00:49:58.843Z,3.80
2017-08-22T00:52:26.433Z,3.40
2017-08-22T00:54:54.034Z,3.77
2017-08-22T00:57:21.610Z,3.37
2017-08-22T00:59:49.229Z,3.40
2017-08-22T01:02:17.006Z,4.00
2017-08-22T01:04:44.620Z,3.83
2017-08-22T01:07:12.232Z,3.80
2017-08-22T01:09:40.190Z,3.57
2017-08-22T01:12:07.806Z,3.50
2017-08-22T01:14:35.467Z,3.23
2017-08-22T01:17:03.071Z,3.83
2017-08-22T01:19:30.687Z,3.93
2017-08-22T01:21:58.314Z,3.90
2017-08-22T01:24:25.897Z,4.10
2017-08-22T01:26:53.497Z,3.50
2017-08-22T01:29:21.085Z,4.20
2017-08-22T01:31:48.670Z,4.20
2017-08-22T01:34:16.285Z,3.83
2017-08-22T01:36:43.887Z,4.00
2017-08-22T01:39:11.504Z,4.17
2017-08-22T01:41:39.087Z,3.80
2017-08-22T01:44:07.167Z,4.37
2017-08-22T01:46:34.819Z,4.20
2017-08-22T01:49:02.619Z,4.00
2017-08-22T01:51:54.914Z,4.27
2017-08-22T01:54:22.874Z,3.60
2017-08-22T01:56:50.469Z,3.70
2017-08-22T01:59:18.073Z,3.57
2017-08-22T02:01:45.710Z,3.87
2017-08-22T02:04:13.303Z,3.57
2017-08-22T02:06:41.260Z,3.53
2017-08-22T02:09:08.837Z,3.50
2017-08-22T02:11:36.419Z,3.60
2017-08-22T02:14:04.031Z,3.70
2017-08-22T02:16:31.643Z,3.40
2017-08-22T02:18:59.494Z,3.53
2017-08-22T02:21:27.092Z,3.80
2017-08-22T02:23:54.672Z,3.20
2017-08-22T02:26:22.300Z,3.13
2017-08-22T02:28:49.901Z,3.57
2017-08-22T02:31:17.832Z,2.87
2017-08-22T02:33:45.415Z,3.37
2017-08-22T02:36:12.987Z,3.40
2017-08-22T02:38:40.608Z,3.20
2017-08-22T02:41:09.188Z,2.90
2017-08-22T02:43:36.811Z,3.33
2017-08-22T02:46:04.394Z,3.40
2017-08-22T02:48:32.384Z,3.87
2017-08-22T02:50:59.968Z,3.77
2017-08-22T02:53:27.933Z,3.80
2017-08-22T02:55:55.536Z,4.10
2017-08-22T02:58:23.121Z,4.27
2017-08-22T03:00:50.718Z,3.83
2017-08-22T03:03:18.316Z,4.00
2017-08-22T03:05:45.938Z,4.10
2017-08-22T03:08:13.556Z,3.90
2017-08-22T03:10:54.588Z,3.60
2017-08-22T03:13:22.206Z,4.03
2017-08-22T03:15:50.177Z,4.27
2017-08-22T03:18:17.785Z,3.67
2017-08-22T03:20:45.383Z,4.00
2017-08-22T03:23:12.988Z,4.17
2017-08-22T03:25:40.698Z,3.90
2017-08-22T03:28:08.314Z,4.50
2017-08-22T03:30:39.846Z,3.63
2017-08-22T03:33:07.769Z,3.80
2017-08-22T03:35:35.363Z,4.20
2017-08-22T03:38:02.958Z,3.57
2017-08-22T03:40:30.578Z,3.43
2017-08-22T03:42:58.183Z,3.63
2017-08-22T03:45:25.782Z,3.40
2017-08-22T03:47:53.385Z,3.87
2017-08-22T03:50:20.965Z,3.97
2017-08-22T03:52:48.576Z,3.53
2017-08-22T03:55:16.178Z,3.60
2017-08-22T03:57:44.184Z,4.20
2017-08-22T04:00:11.804Z,3.80
2017-08-22T04:02:39.404Z,3.90
2017-08-22T04:05:07.028Z,3.57
2017-08-22T04:07:34.605Z,3.37
2017-08-22T04:10:02.199Z,3.93
2017-08-22T04:12:29.798Z,3.60
2017-08-22T04:14:57.756Z,4.23
2017-08-22T04:17:25.348Z,3.37
2017-08-22T04:19:52.943Z,3.20
2017-08-22T04:22:20.551Z,3.70
2017-08-22T04:24:48.235Z,3.20
2017-08-22T04:27:20.143Z,3.60
2017-08-22T04:29:47.738Z,3.73
2017-08-22T04:32:15.621Z,3.90
2017-08-22T04:34:43.245Z,3.40
2017-08-22T04:37:10.842Z,3.03
2017-08-22T04:39:38.464Z,3.20
2017-08-22T04:42:06.111Z,3.00
2017-08-22T04:44:33.732Z,3.00
2017-08-22T04:47:01.341Z,3.20
2017-08-22T04:49:29.334Z,3.10
2017-08-22T04:51:56.938Z,3.63
2017-08-22T04:54:24.536Z,3.40
2017-08-22T04:56:52.264Z,3.27
2017-08-22T04:59:19.873Z,3.10
2017-08-22T05:01:47.798Z,3.10
2017-08-22T05:04:15.392Z,3.20
2017-08-22T05:06:43.098Z,3.37
2017-08-22T05:09:10.706Z,3.00
2017-08-22T05:11:38.291Z,2.90
2017-08-22T05:14:06.265Z,3.53
2017-08-22T05:16:33.857Z,3.50
2017-08-22T05:19:01.566Z,3.40
2017-08-22T05:21:29.189Z,3.60
2017-08-22T05:23:56.791Z,3.40
2017-08-22T05:26:24.445Z,3.53
2017-08-22T05:28:52.053Z,4.57
2017-08-22T05:31:19.999Z,4.50
2017-08-22T05:33:47.615Z,3.60
2017-08-22T05:36:15.215Z,3.70
2017-08-22T05:38:42.848Z,3.70
2017-08-22T05:41:10.593Z,3.50
2017-08-22T05:43:38.199Z,3.73
2017-08-22T05:46:05.825Z,4.40
2017-08-22T05:48:33.730Z,4.23
2017-08-22T05:51:01.352Z,4.20
2017-08-22T05:53:28.948Z,4.27
2017-08-22T05:55:56.616Z,4.17
2017-08-22T05:58:24.391Z,4.00
2017-08-22T06:00:52.280Z,4.30
2017-08-22T06:03:19.958Z,4.87
2017-08-22T06:05:47.540Z,4.10
2017-08-22T06:08:15.204Z,4.00
2017-08-22T06:10:42.811Z,4.00
2017-08-22T06:13:10.768Z,5.03
2017-08-22T06:15:38.358Z,4.90
2017-08-22T06:18:05.933Z,4.77
2017-08-22T06:20:33.527Z,5.03
2017-08-22T06:23:01.115Z,4.83
2017-08-22T06:25:29.175Z,5.57
2017-08-22T06:27:56.884Z,5.37
2017-08-22T06:30:24.484Z,7.07
2017-08-22T06:32:52.346Z,5.70
2017-08-22T06:35:20.299Z,6.13
2017-08-22T06:37:48.208Z,8.33
2017-08-22T06:40:15.819Z,5.87
2017-08-22T06:42:43.611Z,5.17
2017-08-22T06:45:11.245Z,8.23
2017-08-22T06:47:38.860Z,5.87
2017-08-22T06:50:06.500Z,5.33
2017-08-22T06:52:34.121Z,6.23
2017-08-22T06:55:02.037Z,5.33
2017-08-22T06:57:29.648Z,5.70
2017-08-22T06:59:57.252Z,5.90
2017-08-22T07:02:24.900Z,5.97
2017-08-22T07:04:52.490Z,5.63
2017-08-22T07:07:20.485Z,5.80
2017-08-22T07:09:48.095Z,6.30
2017-08-22T07:12:15.701Z,6.33
2017-08-22T07:14:43.452Z,6.47
2017-08-22T07:17:11.168Z,6.23
2017-08-22T07:19:39.101Z,6.93
2017-08-22T07:22:06.714Z,8.57
2017-08-22T07:24:34.301Z,7.00
2017-08-22T07:27:01.919Z,5.93
2017-08-22T07:29:29.514Z,6.23
2017-08-22T07:31:57.490Z,7.40
2017-08-22T07:34:25.105Z,6.10
2017-08-22T07:36:52.681Z,7.17
2017-08-22T07:39:20.885Z,5.57
2017-08-22T07:41:48.493Z,6.33
2017-08-22T07:44:16.088Z,6.00
2017-08-22T07:46:43.706Z,6.30
2017-08-22T07:49:11.410Z,6.30
2017-08-22T07:51:39.025Z,6.30
2017-08-22T07:54:06.627Z,5.80
2017-08-22T07:56:34.644Z,6.43
2017-08-22T07:59:02.366Z,6.20
2017-08-22T08:01:29.949Z,5.80
2017-08-22T08:03:57.900Z,5.93
2017-08-22T08:06:25.508Z,5.70
2017-08-22T08:08:53.272Z,6.47
2017-08-22T08:11:20.877Z,6.47
2017-08-22T08:13:48.887Z,6.30
2017-08-22T08:16:16.835Z,6.83
2017-08-22T08:18:44.439Z,10.90
2017-08-22T08:21:12.100Z,8.40
2017-08-22T08:23:39.726Z,6.30
2017-08-22T08:26:07.714Z,6.97
2017-08-22T08:28:35.312Z,6.63
2017-08-22T08:31:02.935Z,5.10
2017-08-22T08:33:30.572Z,4.73
2017-08-22T08:35:58.163Z,4.67
2017-08-22T08:38:26.153Z,3.57
2017-08-22T08:40:53.745Z,3.63
2017-08-22T08:43:21.366Z,5.20
2017-08-22T08:45:49.412Z,3.47
2017-08-22T08:48:17.003Z,4.20
2017-08-22T08:50:44.632Z,4.77
2017-08-22T08:53:12.243Z,4.63
2017-08-22T08:55:39.816Z,4.40
2017-08-22T08:58:08.023Z,3.63
2017-08-22T09:00:35.721Z,3.40
2017-08-22T09:03:03.351Z,3.53
2017-08-22T09:05:31.030Z,3.03
2017-08-22T09:07:58.985Z,3.30
2017-08-22T09:10:26.579Z,4.20
2017-08-22T09:12:54.168Z,3.47
2017-08-22T09:15:21.770Z,2.73
2017-08-22T09:17:49.363Z,2.60
2017-08-22T09:20:16.982Z,3.20
2017-08-22T09:22:44.596Z,2.90
2017-08-22T09:25:13.667Z,3.73
2017-08-22T09:27:41.550Z,2.90
2017-08-22T09:30:09.160Z,3.43
2017-08-22T09:32:36.745Z,3.20
2017-08-22T09:35:04.354Z,3.80
2017-08-22T09:37:31.955Z,3.57
2017-08-22T09:39:59.591Z,3.67
2017-08-22T09:42:27.221Z,3.23
2017-08-22T09:44:55.262Z,2.90
2017-08-22T09:47:22.906Z,2.77
2017-08-22T09:49:50.679Z,3.07
2017-08-22T09:52:18.376Z,3.33
2017-08-22T09:54:45.970Z,3.07
2017-08-22T09:57:13.557Z,3.00
2017-08-22T09:59:41.168Z,2.73
2017-08-22T10:02:08.772Z,2.50
2017-08-22T10:04:36.391Z,2.43
2017-08-22T10:07:03.994Z,2.50
2017-08-22T10:09:32.015Z,2.80
2017-08-22T10:11:59.608Z,2.53
2017-08-22T10:14:27.251Z,2.97
2017-08-22T10:16:55.177Z,2.60
2017-08-22T10:19:22.794Z,2.60
2017-08-22T10:21:50.413Z,2.97
2017-08-22T10:24:18.030Z,3.40
2017-08-22T10:26:45.632Z,3.80
2017-08-22T10:29:13.267Z,3.10
2017-08-22T10:31:40.864Z,3.60
2017-08-22T10:34:08.796Z,2.90
2017-08-22T10:36:36.391Z,2.83
2017-08-22T10:39:03.989Z,2.73
2017-08-22T10:41:31.637Z,4.27
2017-08-22T10:43:59.221Z,2.70
2017-08-22T10:46:26.913Z,2.80
2017-08-22T10:48:54.630Z,2.50
2017-08-22T10:51:22.562Z,2.80
2017-08-22T10:53:50.190Z,2.50
2017-08-22T10:56:17.803Z,2.70
2017-08-22T10:58:45.746Z,2.43
2017-08-22T11:01:13.355Z,2.63
2017-08-22T11:03:40.966Z,2.70
2017-08-22T11:06:08.621Z,3.30
2017-08-22T11:08:36.238Z,2.40
2017-08-22T11:11:03.851Z,2.40
2017-08-22T11:13:31.569Z,3.10
2017-08-22T11:15:59.195Z,2.70
2017-08-22T11:18:26.787Z,2.50
2017-08-22T11:20:54.396Z,3.23
2017-08-22T11:23:22.365Z,2.90
2017-08-22T11:25:49.945Z,2.70
2017-08-22T11:28:17.548Z,3.07
2017-08-22T11:30:45.180Z,2.57
2017-08-22T11:33:12.796Z,2.60
2017-08-22T11:35:41.490Z,2.97
2017-08-22T11:38:09.070Z,2.73
2017-08-22T11:40:36.653Z,2.40
2017-08-22T11:43:04.270Z,2.50
2017-08-22T11:45:31.878Z,2.97
2017-08-22T11:47:59.784Z,3.17
2017-08-22T11:50:27.362Z,2.80
2017-08-22T11:52:55.009Z,3.30
2017-08-22T11:55:22.636Z,3.00
2017-08-22T11:57:50.214Z,2.47
2017-08-22T12:00:17.861Z,2.70
2017-08-22T12:02:45.450Z,2.47
2017-08-22T12:05:13.444Z,2.77
2017-08-22T12:07:41.037Z,2.90
2017-08-22T12:10:08.638Z,2.70
2017-08-22T12:12:36.360Z,2.60
2017-08-22T12:15:03.972Z,3.20
2017-08-22T12:17:31.618Z,2.43
2017-08-22T12:19:59.235Z,2.63
2017-08-22T12:22:27.260Z,3.20
2017-08-22T12:24:54.993Z,2.77
2017-08-22T12:27:22.585Z,2.60
2017-08-22T12:29:50.300Z,2.40
2017-08-22T12:32:17.917Z,3.17
2017-08-22T12:34:45.913Z,2.43
2017-08-22T12:37:13.511Z,2.43
2017-08-22T12:39:41.125Z,3.20
2017-08-22T12:42:08.764Z,2.67
2017-08-22T12:44:36.357Z,2.60
2017-08-22T12:47:03.995Z,2.70
2017-08-22T12:49:31.591Z,3.30
2017-08-22T12:51:59.662Z,2.90
2017-08-22T12:54:27.402Z,2.83
2017-08-22T12:56:54.986Z,2.90
2017-08-22T12:59:22.637Z,2.80
2017-08-22T13:01:50.258Z,2.30
2017-08-22T13:04:18.234Z,2.70
2017-08-22T13:06:45.827Z,4.20
2017-08-22T13:09:13.535Z,4.17
2017-08-22T13:11:41.156Z,3.03
2017-08-22T13:14:08.787Z,3.70
2017-08-22T13:16:36.410Z,3.13
2017-08-22T13:19:04.062Z,4.13
2017-08-22T13:21:31.939Z,2.40
2017-08-22T13:23:59.568Z,3.37
2017-08-22T13:26:27.183Z,3.20
2017-08-22T13:28:54.823Z,2.97
2017-08-22T13:31:22.422Z,2.80
2017-08-22T13:33:50.023Z,2.43
2017-08-22T13:36:17.591Z,2.57
2017-08-22T13:38:45.232Z,2.73
2017-08-22T13:41:12.835Z,2.70
2017-08-22T13:43:40.458Z,2.97
2017-08-22T13:46:08.052Z,2.73
2017-08-22T13:48:35.669Z,2.83
2017-08-22T13:51:03.286Z,2.40
2017-08-22T13:53:30.877Z,2.80
2017-08-22T13:55:58.866Z,3.07
2017-08-22T13:58:26.481Z,3.17
2017-08-22T14:00:54.100Z,2.43
2017-08-22T14:03:21.733Z,2.90
2017-08-22T14:05:49.344Z,2.37
2017-08-22T14:08:16.931Z,3.17
2017-08-22T14:10:44.536Z,3.10
2017-08-22T14:13:43.220Z,2.87
2017-08-22T14:16:10.836Z,2.40
2017-08-22T14:18:38.440Z,2.47
2017-08-22T14:21:06.418Z,2.50
2017-08-22T14:23:34.008Z,3.10
2017-08-22T14:26:01.611Z,2.73
2017-08-22T14:28:29.245Z,2.77
2017-08-22T14:30:56.835Z,2.60
2017-08-22T14:33:24.458Z,2.43
2017-08-22T14:35:52.041Z,2.60
2017-08-22T14:38:19.671Z,2.30
2017-08-22T14:40:47.277Z,2.90
2017-08-22T14:43:15.219Z,2.70
2017-08-22T14:45:42.823Z,2.90
2017-08-22T14:48:10.402Z,2.73
2017-08-22T14:50:38.050Z,2.50
2017-08-22T14:53:05.763Z,3.30
2017-08-22T14:55:33.545Z,2.90
2017-08-22T14:58:01.140Z,2.73
2017-08-22T15:00:29.127Z,2.53
2017-08-22T15:02:56.714Z,2.50
2017-08-22T15:05:24.377Z,2.90
2017-08-22T15:07:52.297Z,2.57
2017-08-22T15:10:19.945Z,3.07
2017-08-22T15:12:47.566Z,2.83
2017-08-22T15:15:16.357Z,2.40
2017-08-22T15:17:43.962Z,2.67
2017-08-22T15:20:11.573Z,2.87
2017-08-22T15:25:13.314Z,2.60
2017-08-22T15:27:40.925Z,2.47
2017-08-22T15:30:08.516Z,2.40
2017-08-22T15:32:36.110Z,2.80
2017-08-22T15:35:03.721Z,2.50
2017-08-22T15:37:31.766Z,2.37
2017-08-22T15:39:59.382Z,2.43
2017-08-22T15:42:26.966Z,2.43
2017-08-22T15:44:54.676Z,2.20
2017-08-22T15:47:22.456Z,2.87
2017-08-22T15:49:50.102Z,2.90
2017-08-22T15:52:17.703Z,2.70
2017-08-22T15:54:45.921Z,2.20
2017-08-22T15:57:13.542Z,3.00
2017-08-22T15:59:41.142Z,2.23
2017-08-22T16:02:08.767Z,2.40
2017-08-22T16:04:36.555Z,2.93
2017-08-22T16:07:04.172Z,2.50
2017-08-22T16:09:31.989Z,2.00
2017-08-22T16:11:59.950Z,2.50
2017-08-22T16:14:27.560Z,2.37
2017-08-22T16:16:55.150Z,2.50
2017-08-22T16:19:22.811Z,2.27
2017-08-22T16:21:50.444Z,2.17
2017-08-22T16:24:18.482Z,2.40
2017-08-22T16:26:46.093Z,2.10
2017-08-22T16:29:13.696Z,2.40
2017-08-22T16:31:41.349Z,2.90
2017-08-22T16:34:08.939Z,2.07
2017-08-22T16:36:36.558Z,2.70
2017-08-22T16:39:04.145Z,2.30
2017-08-22T16:41:31.820Z,2.23
2017-08-22T16:43:59.791Z,4.07
2017-08-22T16:46:27.725Z,2.70
2017-08-22T16:48:55.369Z,2.07
2017-08-22T16:51:23.013Z,2.57
2017-08-22T16:53:50.679Z,2.77
2017-08-22T16:56:18.957Z,2.73
2017-08-22T16:58:46.625Z,2.47
2017-08-22T17:01:14.249Z,2.93
2017-08-22T17:03:42.183Z,2.97
2017-08-22T17:06:09.907Z,2.90
2017-08-22T17:08:37.661Z,4.70
2017-08-22T17:11:05.335Z,5.10
2017-08-22T17:13:32.999Z,7.97
2017-08-22T17:16:01.024Z,5.83
2017-08-22T17:18:28.731Z,7.97
2017-08-22T17:20:56.555Z,5.40
2017-08-22T17:23:24.414Z,5.27
2017-08-22T17:25:57.868Z,6.90
2017-08-22T17:28:25.586Z,7.97
2017-08-22T17:30:53.256Z,7.20
2017-08-22T17:33:21.225Z,8.60
2017-08-22T17:35:48.856Z,8.80
2017-08-22T17:38:16.639Z,8.93
2017-08-22T17:40:44.387Z,9.50
2017-08-22T17:43:12.601Z,9.60
2017-08-22T17:45:40.261Z,7.87
2017-08-22T17:48:07.910Z,8.80
2017-08-22T17:50:35.587Z,8.00
2017-08-22T17:53:03.227Z,7.80
2017-08-22T17:55:31.467Z,6.57
2017-08-22T17:57:59.147Z,6.00
2017-08-22T18:00:26.778Z,5.20
2017-08-22T18:02:54.587Z,5.00
2017-08-22T18:05:22.227Z,5.10
2017-08-22T18:07:49.981Z,5.27
2017-08-22T18:10:17.626Z,5.60
2017-08-22T18:12:50.983Z,5.17
2017-08-22T18:15:18.625Z,5.33
2017-08-22T18:17:46.347Z,5.37
2017-08-22T18:20:14.067Z,7.70
2017-08-22T18:22:42.039Z,6.00
2017-08-22T18:25:09.672Z,7.80
2017-08-22T18:27:37.408Z,6.97
2017-08-22T18:30:05.036Z,6.40
2017-08-22T18:32:32.672Z,6.57
2017-08-22T18:35:00.346Z,6.33
2017-08-22T18:37:28.106Z,5.70
2017-08-22T18:39:55.757Z,6.20
2017-08-22T18:42:23.450Z,6.57
2017-08-22T18:44:52.439Z,5.53
2017-08-22T18:47:20.057Z,5.30
2017-08-22T18:49:48.003Z,5.40
2017-08-22T18:52:15.611Z,5.70
2017-08-22T18:54:43.219Z,5.40
2017-08-22T18:57:11.100Z,5.20
2017-08-22T18:59:38.755Z,5.37
2017-08-22T19:02:06.617Z,4.60
2017-08-22T19:04:34.250Z,5.40
2017-08-22T19:07:02.319Z,6.20
2017-08-22T19:09:29.951Z,5.93
2017-08-22T19:11:57.577Z,6.10
2017-08-22T19:14:25.214Z,6.00
2017-08-22T19:16:52.883Z,6.00
2017-08-22T19:19:20.648Z,6.47
2017-08-22T19:21:48.308Z,6.20
2017-08-22T19:24:16.056Z,6.40
2017-08-22T19:26:43.711Z,5.70
2017-08-22T19:29:11.372Z,5.13
2017-08-22T19:31:38.997Z,5.83
2017-08-22T19:34:07.124Z,5.80
2017-08-22T19:36:34.750Z,5.33
2017-08-22T19:39:02.369Z,5.70
2017-08-22T19:41:30.337Z,6.13
2017-08-22T19:43:57.982Z,6.27
2017-08-22T19:46:25.598Z,5.70
2017-08-22T19:48:53.298Z,6.30
2017-08-22T19:51:20.933Z,5.50
2017-08-22T19:53:48.566Z,5.93
2017-08-22T19:56:16.179Z,4.90
2017-08-22T19:58:43.810Z,5.23
2017-08-22T20:01:11.405Z,5.90
2017-08-22T20:03:39.119Z,5.27
2017-08-22T20:06:06.742Z,5.17
2017-08-22T20:08:34.775Z,5.60
2017-08-22T20:11:02.383Z,6.03
2017-08-22T20:13:30.005Z,5.00
2017-08-22T20:15:57.669Z,4.90
2017-08-22T20:18:25.283Z,5.00
2017-08-22T20:20:52.916Z,5.20
2017-08-22T20:23:20.593Z,5.03
2017-08-22T20:25:48.273Z,5.60
2017-08-22T20:28:15.974Z,5.43
2017-08-22T20:30:43.944Z,6.17
2017-08-22T20:33:11.574Z,5.23
2017-08-22T20:35:39.200Z,5.50
2017-08-22T20:38:06.847Z,5.80
2017-08-22T20:40:34.481Z,5.20
2017-08-22T20:43:02.112Z,6.87
2017-08-22T20:45:29.729Z,5.80
2017-08-22T20:47:57.718Z,5.77
2017-08-22T20:50:25.355Z,6.13
2017-08-22T20:52:53.018Z,6.10
2017-08-22T20:55:20.684Z,6.30
2017-08-22T20:57:48.282Z,5.83
2017-08-22T21:00:15.922Z,5.50
2017-08-22T21:02:43.544Z,5.90
2017-08-22T21:05:11.552Z,6.20
2017-08-22T21:07:39.165Z,5.83
2017-08-22T21:10:06.826Z,6.90
2017-08-22T21:12:34.440Z,6.07
2017-08-22T21:15:02.036Z,6.30
2017-08-22T21:17:29.686Z,6.23
2017-08-22T21:19:57.335Z,5.80
2017-08-22T21:22:25.294Z,6.40
2017-08-22T21:24:52.920Z,6.93
2017-08-22T21:27:20.534Z,5.97
2017-08-22T21:29:48.227Z,7.17
2017-08-22T21:32:15.912Z,6.77
2017-08-22T21:34:43.568Z,5.63
2017-08-22T21:37:11.158Z,5.90
2017-08-22T21:39:39.249Z,5.90
2017-08-22T21:42:06.865Z,5.70
2017-08-22T21:44:34.480Z,6.70
2017-08-22T21:47:02.112Z,5.90
2017-08-22T21:49:29.728Z,6.03
2017-08-22T21:51:57.394Z,6.00
2017-08-22T21:54:25.007Z,6.20
2017-08-22T21:56:52.679Z,6.40
2017-08-22T21:59:20.295Z,6.00
2017-08-22T22:01:48.308Z,5.97
2017-08-22T22:04:15.938Z,6.50
2017-08-22T22:06:43.529Z,6.13
2017-08-22T22:09:11.164Z,6.03
2017-08-22T22:11:38.772Z,5.43
2017-08-22T22:14:06.413Z,5.70
2017-08-22T22:16:34.123Z,6.50
2017-08-22T22:19:02.090Z,6.37
2017-08-22T22:21:29.737Z,5.60
2017-08-22T22:23:57.525Z,6.47
2017-08-22T22:26:25.253Z,6.43
2017-08-22T22:28:53.004Z,6.00
2017-08-22T22:31:20.773Z,6.77
2017-08-22T22:33:48.434Z,6.30
2017-08-22T22:36:16.093Z,6.23
2017-08-22T22:38:43.784Z,5.83
2017-08-22T22:41:11.797Z,6.07
2017-08-22T22:43:39.413Z,6.07
2017-08-22T22:46:07.068Z,5.67
2017-08-22T22:48:34.710Z,6.00
2017-08-22T22:51:02.354Z,6.13
2017-08-22T22:53:29.983Z,5.60
2017-08-22T22:55:57.594Z,6.60
2017-08-22T22:58:25.491Z,7.20
2017-08-22T23:00:53.109Z,6.90
2017-08-22T23:03:20.746Z,6.27
2017-08-22T23:05:48.419Z,5.97
2017-08-22T23:08:16.209Z,6.43
2017-08-22T23:10:43.839Z,6.60
2017-08-22T23:13:11.448Z,6.60
2017-08-22T23:15:39.346Z,6.40
2017-08-22T23:18:06.969Z,6.20
2017-08-22T23:20:34.591Z,6.30
2017-08-22T23:23:02.212Z,6.80
2017-08-22T23:25:29.808Z,6.83
2017-08-22T23:27:57.448Z,7.03
2017-08-22T23:30:25.085Z,6.77
2017-08-22T23:32:52.782Z,6.13
2017-08-22T23:35:20.430Z,6.03
2017-08-22T23:37:48.437Z,6.47
2017-08-22T23:40:16.032Z,6.23
2017-08-22T23:42:49.510Z,6.57
2017-08-22T23:45:17.142Z,5.90
2017-08-22T23:47:44.951Z,5.47
2017-08-22T23:50:12.607Z,6.40
2017-08-22T23:52:40.225Z,6.70
2017-08-22T23:55:08.018Z,6.50
2017-08-22T23:57:35.633Z,6.33
